Terminal Aerodrome Forecast
Issued by NWS

Home | Current Version | Previous Version | Text Only | Print | Product List | Glossary On
Versions: 1 2 3 4 5 6 7 8 9 10 11 12 13 14 15 16 17 18 19 20 21 22 23 24 25
000
FTUS44 KSJT 300500
TAFBBD
TAF
KBBD 300520Z 3006/3106 15006KT P6SM BKN035
     FM300800 15007KT P6SM OVC015
     FM300900 14006KT P6SM VCTS BKN015CB
      TEMPO 3010/3012 VRB25G35KT 4SM TSRA BR OVC015CB
     FM301300 04006KT P6SM -SHRA VCTS OVC015CB
     FM301800 05008KT P6SM VCSH OVC050=

USA.gov is the U.S. government's official web portal to all federal, state and local government web resources and services.